sensor_id;sensor_type;location;lat;lon;timestamp;temperature;humidity
6581;DHT22;3324;50.796;7.228;2023-04-29T00:01:07;14.30;99.90
6581;DHT22;3324;50.796;7.228;2023-04-29T00:03:33;14.20;99.90
6581;DHT22;3324;50.796;7.228;2023-04-29T00:05:59;14.20;99.90
6581;DHT22;3324;50.796;7.228;2023-04-29T00:08:25;14.20;99.90
6581;DHT22;3324;50.796;7.228;2023-04-29T00:10:50;14.10;99.90
6581;DHT22;3324;50.796;7.228;2023-04-29T00:13:16;14.10;99.90
6581;DHT22;3324;50.796;7.228;2023-04-29T00:15:42;14.10;99.90
6581;DHT22;3324;50.796;7.228;2023-04-29T00:18:08;14.10;99.90
6581;DHT22;3324;50.796;7.228;2023-04-29T00:20:35;14.00;99.90
6581;DHT22;3324;50.796;7.228;2023-04-29T00:23:01;14.00;99.90
6581;DHT22;3324;50.796;7.228;2023-04-29T00:25:26;14.00;99.90
6581;DHT22;3324;50.796;7.228;2023-04-29T00:27:52;13.90;99.90
6581;DHT22;3324;50.796;7.228;2023-04-29T00:30:18;13.90;99.90
6581;DHT22;3324;50.796;7.228;2023-04-29T00:32:44;13.90;99.90
6581;DHT22;3324;50.796;7.228;2023-04-29T00:35:11;13.80;99.90
6581;DHT22;3324;50.796;7.228;2023-04-29T00:37:36;13.90;99.90
6581;DHT22;3324;50.796;7.228;2023-04-29T00:40:02;13.80;99.90
6581;DHT22;3324;50.796;7.228;2023-04-29T00:42:30;13.80;99.90
6581;DHT22;3324;50.796;7.228;2023-04-29T00:44:58;13.90;99.90
6581;DHT22;3324;50.796;7.228;2023-04-29T00:47:24;13.80;99.90
6581;DHT22;3324;50.796;7.228;2023-04-29T00:49:49;13.80;99.90
6581;DHT22;3324;50.796;7.228;2023-04-29T00:52:16;13.70;99.90
6581;DHT22;3324;50.796;7.228;2023-04-29T00:54:43;13.80;99.90
6581;DHT22;3324;50.796;7.228;2023-04-29T00:57:09;13.80;99.90
6581;DHT22;3324;50.796;7.228;2023-04-29T00:59:34;13.70;99.90
6581;DHT22;3324;50.796;7.228;2023-04-29T01:02:02;13.60;99.90
6581;DHT22;3324;50.796;7.228;2023-04-29T01:04:28;13.60;99.90
6581;DHT22;3324;50.796;7.228;2023-04-29T01:07:17;13.50;99.90
6581;DHT22;3324;50.796;7.228;2023-04-29T01:09:49;13.50;99.90
6581;DHT22;3324;50.796;7.228;2023-04-29T01:12:37;13.50;99.90
6581;DHT22;3324;50.796;7.228;2023-04-29T01:15:20;13.50;99.90
6581;DHT22;3324;50.796;7.228;2023-04-29T01:20:35;13.40;99.90
6581;DHT22;3324;50.796;7.228;2023-04-29T01:23:02;13.30;99.90
6581;DHT22;3324;50.796;7.228;2023-04-29T01:25:28;13.30;99.90
6581;DHT22;3324;50.796;7.228;2023-04-29T01:30:38;13.20;99.90
6581;DHT22;3324;50.796;7.228;2023-04-29T01:33:16;13.20;99.90
6581;DHT22;3324;50.796;7.228;2023-04-29T01:36:02;13.20;99.90
6581;DHT22;3324;50.796;7.228;2023-04-29T01:39:05;13.20;99.90
6581;DHT22;3324;50.796;7.228;2023-04-29T01:44:04;13.20;99.90
6581;DHT22;3324;50.796;7.228;2023-04-29T01:46:32;13.20;99.90
6581;DHT22;3324;50.796;7.228;2023-04-29T01:48:58;13.20;99.90
6581;DHT22;3324;50.796;7.228;2023-04-29T01:51:24;13.10;99.90
6581;DHT22;3324;50.796;7.228;2023-04-29T01:53:49;13.20;99.90
6581;DHT22;3324;50.796;7.228;2023-04-29T01:56:15;13.10;99.90
6581;DHT22;3324;50.796;7.228;2023-04-29T01:58:40;13.20;99.90
6581;DHT22;3324;50.796;7.228;2023-04-29T02:01:06;13.00;99.90
6581;DHT22;3324;50.796;7.228;2023-04-29T02:03:31;13.10;99.90
6581;DHT22;3324;50.796;7.228;2023-04-29T02:05:57;13.10;99.90
6581;DHT22;3324;50.796;7.228;2023-04-29T02:08:23;13.10;99.90
6581;DHT22;3324;50.796;7.228;2023-04-29T02:10:58;13.10;99.90
6581;DHT22;3324;50.796;7.228;2023-04-29T02:13:24;13.10;99.90
6581;DHT22;3324;50.796;7.228;2023-04-29T02:15:50;13.00;99.90
6581;DHT22;3324;50.796;7.228;2023-04-29T02:18:16;13.00;99.90
6581;DHT22;3324;50.796;7.228;2023-04-29T02:20:42;12.90;99.90
6581;DHT22;3324;50.796;7.228;2023-04-29T02:23:07;12.90;99.90
6581;DHT22;3324;50.796;7.228;2023-04-29T02:25:33;12.90;99.90
6581;DHT22;3324;50.796;7.228;2023-04-29T02:27:59;12.90;99.90
6581;DHT22;3324;50.796;7.228;2023-04-29T02:30:24;12.90;99.90
6581;DHT22;3324;50.796;7.228;2023-04-29T02:32:50;12.90;99.90
6581;DHT22;3324;50.796;7.228;2023-04-29T02:35:17;12.80;99.90
6581;DHT22;3324;50.796;7.228;2023-04-29T02:37:43;12.90;99.90
6581;DHT22;3324;50.796;7.228;2023-04-29T02:40:09;12.90;99.90
6581;DHT22;3324;50.796;7.228;2023-04-29T02:42:35;12.90;99.90
6581;DHT22;3324;50.796;7.228;2023-04-29T02:45:01;12.90;99.90
6581;DHT22;3324;50.796;7.228;2023-04-29T02:47:26;12.90;99.90
6581;DHT22;3324;50.796;7.228;2023-04-29T02:49:52;12.80;99.90
6581;DHT22;3324;50.796;7.228;2023-04-29T02:52:17;12.90;99.90
6581;DHT22;3324;50.796;7.228;2023-04-29T02:54:43;12.80;99.90
6581;DHT22;3324;50.796;7.228;2023-04-29T02:57:09;12.80;99.90
6581;DHT22;3324;50.796;7.228;2023-04-29T02:59:35;12.80;99.90
6581;DHT22;3324;50.796;7.228;2023-04-29T03:02:01;12.80;99.90
6581;DHT22;3324;50.796;7.228;2023-04-29T03:04:27;12.80;99.90
6581;DHT22;3324;50.796;7.228;2023-04-29T03:06:54;12.70;99.90
6581;DHT22;3324;50.796;7.228;2023-04-29T03:09:21;12.70;99.90
6581;DHT22;3324;50.796;7.228;2023-04-29T03:11:47;12.70;99.90
6581;DHT22;3324;50.796;7.228;2023-04-29T03:14:12;12.80;99.90
6581;DHT22;3324;50.796;7.228;2023-04-29T03:16:38;12.70;99.90
6581;DHT22;3324;50.796;7.228;2023-04-29T03:19:04;12.60;99.90
6581;DHT22;3324;50.796;7.228;2023-04-29T03:21:29;12.70;99.90
6581;DHT22;3324;50.796;7.228;2023-04-29T03:23:55;12.60;99.90
6581;DHT22;3324;50.796;7.228;2023-04-29T03:26:20;12.70;99.90
6581;DHT22;3324;50.796;7.228;2023-04-29T03:28:48;12.60;99.90
6581;DHT22;3324;50.796;7.228;2023-04-29T03:31:14;12.60;99.90
6581;DHT22;3324;50.796;7.228;2023-04-29T03:33:40;12.60;99.90
6581;DHT22;3324;50.796;7.228;2023-04-29T03:36:06;12.60;99.90
6581;DHT22;3324;50.796;7.228;2023-04-29T03:38:33;12.60;99.90
6581;DHT22;3324;50.796;7.228;2023-04-29T03:40:58;12.60;99.90
6581;DHT22;3324;50.796;7.228;2023-04-29T03:43:25;12.50;99.90
6581;DHT22;3324;50.796;7.228;2023-04-29T03:45:51;12.50;99.90
6581;DHT22;3324;50.796;7.228;2023-04-29T03:48:17;12.50;99.90
6581;DHT22;3324;50.796;7.228;2023-04-29T03:50:43;12.60;99.90
6581;DHT22;3324;50.796;7.228;2023-04-29T03:53:08;12.50;99.90
6581;DHT22;3324;50.796;7.228;2023-04-29T03:55:34;12.50;99.90
6581;DHT22;3324;50.796;7.228;2023-04-29T03:58:00;12.50;99.90
6581;DHT22;3324;50.796;7.228;2023-04-29T04:00:26;12.40;99.90
6581;DHT22;3324;50.796;7.228;2023-04-29T04:02:55;12.40;99.90
6581;DHT22;3324;50.796;7.228;2023-04-29T04:05:21;12.40;99.90
6581;DHT22;3324;50.796;7.228;2023-04-29T04:07:52;12.40;99.90
6581;DHT22;3324;50.796;7.228;2023-04-29T04:10:18;12.40;99.90
6581;DHT22;3324;50.796;7.228;2023-04-29T04:12:43;12.40;99.90
6581;DHT22;3324;50.796;7.228;2023-04-29T04:15:10;12.30;99.90
6581;DHT22;3324;50.796;7.228;2023-04-29T04:17:35;12.30;99.90
6581;DHT22;3324;50.796;7.228;2023-04-29T04:20:01;12.30;99.90
6581;DHT22;3324;50.796;7.228;2023-04-29T04:22:27;12.30;99.90
6581;DHT22;3324;50.796;7.228;2023-04-29T04:24:55;12.30;99.90
6581;DHT22;3324;50.796;7.228;2023-04-29T04:27:21;12.30;99.90
6581;DHT22;3324;50.796;7.228;2023-04-29T04:29:47;12.30;99.90
6581;DHT22;3324;50.796;7.228;2023-04-29T04:32:13;12.30;99.90
6581;DHT22;3324;50.796;7.228;2023-04-29T04:34:38;12.30;99.90
6581;DHT22;3324;50.796;7.228;2023-04-29T04:37:04;12.20;99.90
6581;DHT22;3324;50.796;7.228;2023-04-29T04:39:31;12.20;99.90
6581;DHT22;3324;50.796;7.228;2023-04-29T04:41:56;12.20;99.90
6581;DHT22;3324;50.796;7.228;2023-04-29T04:44:22;12.20;99.90
6581;DHT22;3324;50.796;7.228;2023-04-29T04:46:47;12.20;99.90
6581;DHT22;3324;50.796;7.228;2023-04-29T04:49:13;12.10;99.90
6581;DHT22;3324;50.796;7.228;2023-04-29T04:51:38;12.10;99.90
6581;DHT22;3324;50.796;7.228;2023-04-29T04:54:04;12.00;99.90
6581;DHT22;3324;50.796;7.228;2023-04-29T04:56:29;12.00;99.90
6581;DHT22;3324;50.796;7.228;2023-04-29T04:58:55;11.90;99.90
6581;DHT22;3324;50.796;7.228;2023-04-29T05:01:21;11.90;99.90
6581;DHT22;3324;50.796;7.228;2023-04-29T05:03:46;11.80;99.90
6581;DHT22;3324;50.796;7.228;2023-04-29T05:06:12;11.90;99.90
6581;DHT22;3324;50.796;7.228;2023-04-29T05:08:38;11.90;99.90
6581;DHT22;3324;50.796;7.228;2023-04-29T05:11:03;11.90;99.90
6581;DHT22;3324;50.796;7.228;2023-04-29T05:13:29;12.00;99.90
6581;DHT22;3324;50.796;7.228;2023-04-29T05:15:54;11.90;99.90
6581;DHT22;3324;50.796;7.228;2023-04-29T05:18:20;11.90;99.90
6581;DHT22;3324;50.796;7.228;2023-04-29T05:20:46;11.90;99.90
6581;DHT22;3324;50.796;7.228;2023-04-29T05:23:11;11.90;99.90
6581;DHT22;3324;50.796;7.228;2023-04-29T05:25:37;11.80;99.90
6581;DHT22;3324;50.796;7.228;2023-04-29T05:28:02;11.80;99.90
6581;DHT22;3324;50.796;7.228;2023-04-29T05:30:31;11.80;99.90
6581;DHT22;3324;50.796;7.228;2023-04-29T05:32:56;11.80;99.90
6581;DHT22;3324;50.796;7.228;2023-04-29T05:35:23;11.80;99.90
6581;DHT22;3324;50.796;7.228;2023-04-29T05:37:48;11.80;99.90
6581;DHT22;3324;50.796;7.228;2023-04-29T05:40:14;11.80;99.90
6581;DHT22;3324;50.796;7.228;2023-04-29T05:42:40;11.80;99.90
6581;DHT22;3324;50.796;7.228;2023-04-29T05:45:06;11.90;99.90
6581;DHT22;3324;50.796;7.228;2023-04-29T05:47:32;11.90;99.90
6581;DHT22;3324;50.796;7.228;2023-04-29T05:49:57;11.90;99.90
6581;DHT22;3324;50.796;7.228;2023-04-29T05:52:23;11.90;99.90
6581;DHT22;3324;50.796;7.228;2023-04-29T05:54:48;11.90;99.90
6581;DHT22;3324;50.796;7.228;2023-04-29T05:57:14;11.90;99.90
6581;DHT22;3324;50.796;7.228;2023-04-29T05:59:40;11.90;99.90
6581;DHT22;3324;50.796;7.228;2023-04-29T06:02:05;11.90;99.90
6581;DHT22;3324;50.796;7.228;2023-04-29T06:04:31;11.90;99.90
6581;DHT22;3324;50.796;7.228;2023-04-29T06:06:56;11.90;99.90
6581;DHT22;3324;50.796;7.228;2023-04-29T06:09:22;11.90;99.90
6581;DHT22;3324;50.796;7.228;2023-04-29T06:11:50;11.90;99.90
6581;DHT22;3324;50.796;7.228;2023-04-29T06:14:15;11.90;99.90
6581;DHT22;3324;50.796;7.228;2023-04-29T06:16:41;11.90;99.90
6581;DHT22;3324;50.796;7.228;2023-04-29T06:19:07;11.90;99.90
6581;DHT22;3324;50.796;7.228;2023-04-29T06:21:33;11.90;99.90
6581;DHT22;3324;50.796;7.228;2023-04-29T06:23:58;11.90;99.90
6581;DHT22;3324;50.796;7.228;2023-04-29T06:26:24;11.90;99.90
6581;DHT22;3324;50.796;7.228;2023-04-29T06:28:49;11.80;99.90
6581;DHT22;3324;50.796;7.228;2023-04-29T06:31:15;11.80;99.90
6581;DHT22;3324;50.796;7.228;2023-04-29T06:33:41;11.80;99.90
6581;DHT22;3324;50.796;7.228;2023-04-29T06:36:07;11.80;99.90
6581;DHT22;3324;50.796;7.228;2023-04-29T06:38:33;11.80;99.90
6581;DHT22;3324;50.796;7.228;2023-04-29T06:40:58;11.80;99.90
6581;DHT22;3324;50.796;7.228;2023-04-29T06:43:27;11.80;99.90
6581;DHT22;3324;50.796;7.228;2023-04-29T06:45:53;11.90;99.90
6581;DHT22;3324;50.796;7.228;2023-04-29T06:48:19;11.90;99.90
6581;DHT22;3324;50.796;7.228;2023-04-29T06:50:55;11.90;99.90
6581;DHT22;3324;50.796;7.228;2023-04-29T06:53:21;11.90;99.90
6581;DHT22;3324;50.796;7.228;2023-04-29T06:55:47;11.90;99.90
6581;DHT22;3324;50.796;7.228;2023-04-29T06:58:14;11.90;99.90
6581;DHT22;3324;50.796;7.228;2023-04-29T07:00:43;11.90;99.90
6581;DHT22;3324;50.796;7.228;2023-04-29T07:03:08;11.90;99.90
6581;DHT22;3324;50.796;7.228;2023-04-29T07:05:35;11.90;99.90
6581;DHT22;3324;50.796;7.228;2023-04-29T07:08:03;11.80;99.90
6581;DHT22;3324;50.796;7.228;2023-04-29T07:10:29;11.80;99.90
6581;DHT22;3324;50.796;7.228;2023-04-29T07:12:55;11.90;99.90
6581;DHT22;3324;50.796;7.228;2023-04-29T07:15:21;11.80;99.90
6581;DHT22;3324;50.796;7.228;2023-04-29T07:17:47;11.90;99.90
6581;DHT22;3324;50.796;7.228;2023-04-29T07:20:12;11.90;99.90
6581;DHT22;3324;50.796;7.228;2023-04-29T07:22:38;11.90;99.90
6581;DHT22;3324;50.796;7.228;2023-04-29T07:25:04;11.90;99.90
6581;DHT22;3324;50.796;7.228;2023-04-29T07:27:32;11.90;99.90
6581;DHT22;3324;50.796;7.228;2023-04-29T07:29:59;11.90;99.90
6581;DHT22;3324;50.796;7.228;2023-04-29T07:32:28;12.00;99.90
6581;DHT22;3324;50.796;7.228;2023-04-29T07:34:56;12.10;99.90
6581;DHT22;3324;50.796;7.228;2023-04-29T07:37:22;12.20;99.90
6581;DHT22;3324;50.796;7.228;2023-04-29T07:39:47;12.30;99.90
6581;DHT22;3324;50.796;7.228;2023-04-29T07:42:13;12.40;99.90
6581;DHT22;3324;50.796;7.228;2023-04-29T07:44:38;12.60;99.90
6581;DHT22;3324;50.796;7.228;2023-04-29T07:47:04;12.70;99.90
6581;DHT22;3324;50.796;7.228;2023-04-29T07:49:30;12.70;99.90
6581;DHT22;3324;50.796;7.228;2023-04-29T07:51:56;12.70;99.90
6581;DHT22;3324;50.796;7.228;2023-04-29T07:54:21;12.70;99.90
6581;DHT22;3324;50.796;7.228;2023-04-29T07:56:48;12.70;99.90
6581;DHT22;3324;50.796;7.228;2023-04-29T07:59:14;12.70;99.90
6581;DHT22;3324;50.796;7.228;2023-04-29T08:01:40;12.80;99.90
6581;DHT22;3324;50.796;7.228;2023-04-29T08:04:06;12.70;99.90
6581;DHT22;3324;50.796;7.228;2023-04-29T08:06:32;12.70;99.90
6581;DHT22;3324;50.796;7.228;2023-04-29T08:08:58;12.60;99.90
6581;DHT22;3324;50.796;7.228;2023-04-29T08:11:23;12.50;99.90
6581;DHT22;3324;50.796;7.228;2023-04-29T08:13:50;12.60;99.90
6581;DHT22;3324;50.796;7.228;2023-04-29T08:16:16;12.70;99.90
6581;DHT22;3324;50.796;7.228;2023-04-29T08:18:42;12.70;99.90
6581;DHT22;3324;50.796;7.228;2023-04-29T08:21:08;12.70;99.90
6581;DHT22;3324;50.796;7.228;2023-04-29T08:23:39;12.80;99.90
6581;DHT22;3324;50.796;7.228;2023-04-29T08:26:04;12.80;99.90
6581;DHT22;3324;50.796;7.228;2023-04-29T08:28:30;12.80;99.90
6581;DHT22;3324;50.796;7.228;2023-04-29T08:30:56;12.80;99.90
6581;DHT22;3324;50.796;7.228;2023-04-29T08:33:22;12.70;99.90
6581;DHT22;3324;50.796;7.228;2023-04-29T08:35:47;12.70;99.90
6581;DHT22;3324;50.796;7.228;2023-04-29T08:38:13;12.60;99.90
6581;DHT22;3324;50.796;7.228;2023-04-29T08:40:44;12.60;99.90
6581;DHT22;3324;50.796;7.228;2023-04-29T08:43:14;12.60;99.90
6581;DHT22;3324;50.796;7.228;2023-04-29T08:45:41;12.60;99.90
6581;DHT22;3324;50.796;7.228;2023-04-29T08:48:08;12.50;99.90
6581;DHT22;3324;50.796;7.228;2023-04-29T08:50:39;12.50;99.90
6581;DHT22;3324;50.796;7.228;2023-04-29T08:53:09;12.50;99.90
6581;DHT22;3324;50.796;7.228;2023-04-29T08:55:40;12.60;99.90
6581;DHT22;3324;50.796;7.228;2023-04-29T08:58:07;12.60;99.90
6581;DHT22;3324;50.796;7.228;2023-04-29T09:00:33;12.60;99.90
6581;DHT22;3324;50.796;7.228;2023-04-29T09:03:00;12.70;99.90
6581;DHT22;3324;50.796;7.228;2023-04-29T09:05:28;12.70;99.90
6581;DHT22;3324;50.796;7.228;2023-04-29T09:07:56;12.70;99.90
6581;DHT22;3324;50.796;7.228;2023-04-29T09:10:24;12.70;99.90
6581;DHT22;3324;50.796;7.228;2023-04-29T09:12:50;12.70;99.90
6581;DHT22;3324;50.796;7.228;2023-04-29T09:15:16;12.80;99.90
6581;DHT22;3324;50.796;7.228;2023-04-29T09:17:42;12.70;99.90
6581;DHT22;3324;50.796;7.228;2023-04-29T09:20:29;12.80;99.90
6581;DHT22;3324;50.796;7.228;2023-04-29T09:22:58;12.90;99.90
6581;DHT22;3324;50.796;7.228;2023-04-29T09:25:24;12.90;99.90
6581;DHT22;3324;50.796;7.228;2023-04-29T09:27:50;13.10;99.90
6581;DHT22;3324;50.796;7.228;2023-04-29T09:30:16;13.20;99.90
6581;DHT22;3324;50.796;7.228;2023-04-29T09:32:42;13.50;99.90
6581;DHT22;3324;50.796;7.228;2023-04-29T09:35:29;13.70;99.90
6581;DHT22;3324;50.796;7.228;2023-04-29T09:38:12;13.90;99.90
6581;DHT22;3324;50.796;7.228;2023-04-29T09:40:39;14.10;99.90
6581;DHT22;3324;50.796;7.228;2023-04-29T09:43:14;14.40;99.90
6581;DHT22;3324;50.796;7.228;2023-04-29T09:45:42;14.60;99.90
6581;DHT22;3324;50.796;7.228;2023-04-29T09:48:09;14.60;99.90
6581;DHT22;3324;50.796;7.228;2023-04-29T09:50:36;14.40;99.90
6581;DHT22;3324;50.796;7.228;2023-04-29T09:53:02;14.30;99.90
6581;DHT22;3324;50.796;7.228;2023-04-29T09:55:29;14.10;99.90
6581;DHT22;3324;50.796;7.228;2023-04-29T09:57:55;13.90;99.90
6581;DHT22;3324;50.796;7.228;2023-04-29T10:00:21;13.80;99.90
6581;DHT22;3324;50.796;7.228;2023-04-29T10:02:47;13.60;99.90
6581;DHT22;3324;50.796;7.228;2023-04-29T10:05:14;13.60;99.90
6581;DHT22;3324;50.796;7.228;2023-04-29T10:07:40;13.50;99.90
6581;DHT22;3324;50.796;7.228;2023-04-29T10:10:08;13.40;99.90
6581;DHT22;3324;50.796;7.228;2023-04-29T10:12:35;13.40;99.90
6581;DHT22;3324;50.796;7.228;2023-04-29T10:15:19;13.30;99.90
6581;DHT22;3324;50.796;7.228;2023-04-29T10:18:10;13.30;99.90
6581;DHT22;3324;50.796;7.228;2023-04-29T10:20:40;13.20;99.90
6581;DHT22;3324;50.796;7.228;2023-04-29T10:23:10;13.20;99.90
6581;DHT22;3324;50.796;7.228;2023-04-29T10:25:39;13.20;99.90
6581;DHT22;3324;50.796;7.228;2023-04-29T10:28:09;13.10;99.90
6581;DHT22;3324;50.796;7.228;2023-04-29T10:30:39;13.10;99.90
6581;DHT22;3324;50.796;7.228;2023-04-29T10:33:10;13.10;99.90
6581;DHT22;3324;50.796;7.228;2023-04-29T10:35:36;13.00;99.90
6581;DHT22;3324;50.796;7.228;2023-04-29T10:38:07;13.00;99.90
6581;DHT22;3324;50.796;7.228;2023-04-29T10:40:45;13.00;99.90
6581;DHT22;3324;50.796;7.228;2023-04-29T10:43:12;13.00;99.90
6581;DHT22;3324;50.796;7.228;2023-04-29T10:45:38;13.00;99.90
6581;DHT22;3324;50.796;7.228;2023-04-29T10:53:15;12.90;99.90
6581;DHT22;3324;50.796;7.228;2023-04-29T10:55:42;13.00;99.90
6581;DHT22;3324;50.796;7.228;2023-04-29T10:58:37;13.00;99.90
6581;DHT22;3324;50.796;7.228;2023-04-29T11:01:03;13.00;99.90
6581;DHT22;3324;50.796;7.228;2023-04-29T11:04:00;13.00;99.90
6581;DHT22;3324;50.796;7.228;2023-04-29T11:09:01;12.80;99.90
6581;DHT22;3324;50.796;7.228;2023-04-29T11:11:55;12.80;99.90
6581;DHT22;3324;50.796;7.228;2023-04-29T11:14:29;12.90;99.90
6581;DHT22;3324;50.796;7.228;2023-04-29T11:17:01;12.90;99.90
6581;DHT22;3324;50.796;7.228;2023-04-29T11:19:32;12.90;99.90
6581;DHT22;3324;50.796;7.228;2023-04-29T11:22:24;12.80;99.90
6581;DHT22;3324;50.796;7.228;2023-04-29T11:24:56;12.80;99.90
6581;DHT22;3324;50.796;7.228;2023-04-29T11:27:24;12.90;99.90
6581;DHT22;3324;50.796;7.228;2023-04-29T11:29:52;12.80;99.90
6581;DHT22;3324;50.796;7.228;2023-04-29T11:32:23;12.90;99.90
6581;DHT22;3324;50.796;7.228;2023-04-29T11:34:50;12.90;99.90
6581;DHT22;3324;50.796;7.228;2023-04-29T11:37:23;12.90;99.90
6581;DHT22;3324;50.796;7.228;2023-04-29T11:39:50;12.90;99.90
6581;DHT22;3324;50.796;7.228;2023-04-29T11:42:22;12.90;99.90
6581;DHT22;3324;50.796;7.228;2023-04-29T11:44:50;12.90;99.90
6581;DHT22;3324;50.796;7.228;2023-04-29T11:47:17;12.90;99.90
6581;DHT22;3324;50.796;7.228;2023-04-29T11:49:43;12.90;99.90
6581;DHT22;3324;50.796;7.228;2023-04-29T11:52:08;12.90;99.90
6581;DHT22;3324;50.796;7.228;2023-04-29T11:54:34;12.90;99.90
6581;DHT22;3324;50.796;7.228;2023-04-29T11:57:00;12.90;99.90
6581;DHT22;3324;50.796;7.228;2023-04-29T11:59:30;12.90;99.90
6581;DHT22;3324;50.796;7.228;2023-04-29T12:01:57;12.80;99.90
6581;DHT22;3324;50.796;7.228;2023-04-29T12:04:23;12.80;99.90
6581;DHT22;3324;50.796;7.228;2023-04-29T12:06:52;12.80;99.90
6581;DHT22;3324;50.796;7.228;2023-04-29T12:09:18;12.90;99.90
6581;DHT22;3324;50.796;7.228;2023-04-29T12:11:44;12.80;99.90
6581;DHT22;3324;50.796;7.228;2023-04-29T12:14:12;12.90;99.90
6581;DHT22;3324;50.796;7.228;2023-04-29T12:16:38;13.10;99.90
6581;DHT22;3324;50.796;7.228;2023-04-29T12:19:04;13.00;99.90
6581;DHT22;3324;50.796;7.228;2023-04-29T12:21:32;13.00;99.90
6581;DHT22;3324;50.796;7.228;2023-04-29T12:23:58;13.00;99.90
6581;DHT22;3324;50.796;7.228;2023-04-29T12:26:27;13.10;99.90
6581;DHT22;3324;50.796;7.228;2023-04-29T12:28:53;13.10;99.90
6581;DHT22;3324;50.796;7.228;2023-04-29T12:31:19;13.00;99.90
6581;DHT22;3324;50.796;7.228;2023-04-29T12:33:45;13.00;99.90
6581;DHT22;3324;50.796;7.228;2023-04-29T12:36:17;13.00;99.90
6581;DHT22;3324;50.796;7.228;2023-04-29T12:38:43;13.10;99.90
6581;DHT22;3324;50.796;7.228;2023-04-29T12:41:09;13.00;99.90
6581;DHT22;3324;50.796;7.228;2023-04-29T12:43:37;13.10;99.90
6581;DHT22;3324;50.796;7.228;2023-04-29T12:46:05;13.10;99.90
6581;DHT22;3324;50.796;7.228;2023-04-29T12:48:32;13.00;99.90
6581;DHT22;3324;50.796;7.228;2023-04-29T12:50:57;13.10;99.90
6581;DHT22;3324;50.796;7.228;2023-04-29T12:53:28;13.20;99.90
6581;DHT22;3324;50.796;7.228;2023-04-29T12:55:54;13.20;99.90
6581;DHT22;3324;50.796;7.228;2023-04-29T12:58:20;13.20;99.90
6581;DHT22;3324;50.796;7.228;2023-04-29T13:00:46;13.10;99.90
6581;DHT22;3324;50.796;7.228;2023-04-29T13:03:12;13.10;99.90
6581;DHT22;3324;50.796;7.228;2023-04-29T13:05:37;13.20;99.90
6581;DHT22;3324;50.796;7.228;2023-04-29T13:08:03;13.20;99.90
6581;DHT22;3324;50.796;7.228;2023-04-29T13:10:33;13.20;99.90
6581;DHT22;3324;50.796;7.228;2023-04-29T13:12:58;13.20;99.90
6581;DHT22;3324;50.796;7.228;2023-04-29T13:15:25;13.30;99.90
6581;DHT22;3324;50.796;7.228;2023-04-29T13:17:51;13.20;99.90
6581;DHT22;3324;50.796;7.228;2023-04-29T13:20:17;13.20;99.90
6581;DHT22;3324;50.796;7.228;2023-04-29T13:22:42;13.20;99.90
6581;DHT22;3324;50.796;7.228;2023-04-29T13:25:12;13.20;99.90
6581;DHT22;3324;50.796;7.228;2023-04-29T13:27:39;13.10;99.90
6581;DHT22;3324;50.796;7.228;2023-04-29T13:30:05;13.10;99.90
6581;DHT22;3324;50.796;7.228;2023-04-29T13:32:31;13.10;99.90
6581;DHT22;3324;50.796;7.228;2023-04-29T13:34:57;13.10;99.90
6581;DHT22;3324;50.796;7.228;2023-04-29T13:37:23;13.20;99.90
6581;DHT22;3324;50.796;7.228;2023-04-29T13:39:48;13.20;99.90
6581;DHT22;3324;50.796;7.228;2023-04-29T13:42:14;13.30;99.90
6581;DHT22;3324;50.796;7.228;2023-04-29T13:44:40;13.50;99.90
6581;DHT22;3324;50.796;7.228;2023-04-29T13:47:12;13.60;99.90
6581;DHT22;3324;50.796;7.228;2023-04-29T13:49:41;13.70;99.90
6581;DHT22;3324;50.796;7.228;2023-04-29T13:52:11;14.00;99.90
6581;DHT22;3324;50.796;7.228;2023-04-29T13:54:37;14.00;99.90
6581;DHT22;3324;50.796;7.228;2023-04-29T13:57:03;14.00;99.90
6581;DHT22;3324;50.796;7.228;2023-04-29T13:59:33;14.00;99.90
6581;DHT22;3324;50.796;7.228;2023-04-29T14:02:00;14.10;99.90
6581;DHT22;3324;50.796;7.228;2023-04-29T14:04:28;14.10;99.90
6581;DHT22;3324;50.796;7.228;2023-04-29T14:06:54;14.20;99.90
6581;DHT22;3324;50.796;7.228;2023-04-29T14:09:21;14.20;99.90
6581;DHT22;3324;50.796;7.228;2023-04-29T14:11:47;14.20;99.90
6581;DHT22;3324;50.796;7.228;2023-04-29T14:14:14;14.20;99.90
6581;DHT22;3324;50.796;7.228;2023-04-29T14:16:40;14.20;99.90
6581;DHT22;3324;50.796;7.228;2023-04-29T14:19:05;14.10;99.90
6581;DHT22;3324;50.796;7.228;2023-04-29T14:21:32;14.20;99.90
6581;DHT22;3324;50.796;7.228;2023-04-29T14:24:01;14.20;99.90
6581;DHT22;3324;50.796;7.228;2023-04-29T14:26:28;14.30;99.90
6581;DHT22;3324;50.796;7.228;2023-04-29T14:28:57;14.40;99.90
6581;DHT22;3324;50.796;7.228;2023-04-29T14:31:28;14.40;99.90
6581;DHT22;3324;50.796;7.228;2023-04-29T14:33:57;14.50;99.90
6581;DHT22;3324;50.796;7.228;2023-04-29T14:36:24;14.50;99.90
6581;DHT22;3324;50.796;7.228;2023-04-29T14:38:49;14.60;99.90
6581;DHT22;3324;50.796;7.228;2023-04-29T14:41:15;14.60;99.90
6581;DHT22;3324;50.796;7.228;2023-04-29T14:43:41;14.60;99.90
6581;DHT22;3324;50.796;7.228;2023-04-29T14:46:07;14.60;99.90
6581;DHT22;3324;50.796;7.228;2023-04-29T14:48:33;14.60;99.90
6581;DHT22;3324;50.796;7.228;2023-04-29T14:50:59;14.60;99.90
6581;DHT22;3324;50.796;7.228;2023-04-29T14:53:25;14.70;99.90
6581;DHT22;3324;50.796;7.228;2023-04-29T14:55:50;14.70;99.90
6581;DHT22;3324;50.796;7.228;2023-04-29T14:58:16;14.70;99.90
6581;DHT22;3324;50.796;7.228;2023-04-29T15:00:42;14.60;99.90
6581;DHT22;3324;50.796;7.228;2023-04-29T15:03:07;14.60;99.90
6581;DHT22;3324;50.796;7.228;2023-04-29T15:05:33;14.60;99.90
6581;DHT22;3324;50.796;7.228;2023-04-29T15:07:59;14.50;99.90
6581;DHT22;3324;50.796;7.228;2023-04-29T15:10:26;14.40;99.90
6581;DHT22;3324;50.796;7.228;2023-04-29T15:12:52;14.40;99.90
6581;DHT22;3324;50.796;7.228;2023-04-29T15:15:18;14.40;99.90
6581;DHT22;3324;50.796;7.228;2023-04-29T15:17:44;14.30;99.90
6581;DHT22;3324;50.796;7.228;2023-04-29T15:20:10;14.20;99.90
6581;DHT22;3324;50.796;7.228;2023-04-29T15:22:36;14.20;99.90
6581;DHT22;3324;50.796;7.228;2023-04-29T15:25:01;14.10;99.90
6581;DHT22;3324;50.796;7.228;2023-04-29T15:27:27;14.10;99.90
6581;DHT22;3324;50.796;7.228;2023-04-29T15:29:53;14.10;99.90
6581;DHT22;3324;50.796;7.228;2023-04-29T15:32:21;14.10;99.90
6581;DHT22;3324;50.796;7.228;2023-04-29T15:34:47;14.10;99.90
6581;DHT22;3324;50.796;7.228;2023-04-29T15:37:13;14.00;99.90
6581;DHT22;3324;50.796;7.228;2023-04-29T15:39:38;14.00;99.90
6581;DHT22;3324;50.796;7.228;2023-04-29T15:42:04;14.00;99.90
6581;DHT22;3324;50.796;7.228;2023-04-29T15:44:31;14.00;99.90
6581;DHT22;3324;50.796;7.228;2023-04-29T15:46:56;14.00;99.90
6581;DHT22;3324;50.796;7.228;2023-04-29T15:49:22;14.00;99.90
6581;DHT22;3324;50.796;7.228;2023-04-29T15:51:48;13.90;99.90
6581;DHT22;3324;50.796;7.228;2023-04-29T15:54:13;13.90;99.90
6581;DHT22;3324;50.796;7.228;2023-04-29T15:56:39;13.90;99.90
6581;DHT22;3324;50.796;7.228;2023-04-29T15:59:05;14.00;99.90
6581;DHT22;3324;50.796;7.228;2023-04-29T16:01:31;14.00;99.90
6581;DHT22;3324;50.796;7.228;2023-04-29T16:03:56;13.90;99.90
6581;DHT22;3324;50.796;7.228;2023-04-29T16:06:22;13.90;99.90
6581;DHT22;3324;50.796;7.228;2023-04-29T16:08:48;14.00;99.90
6581;DHT22;3324;50.796;7.228;2023-04-29T16:11:14;14.00;99.90
6581;DHT22;3324;50.796;7.228;2023-04-29T16:13:40;14.00;99.90
6581;DHT22;3324;50.796;7.228;2023-04-29T16:16:06;14.00;99.90
6581;DHT22;3324;50.796;7.228;2023-04-29T16:18:31;14.00;99.90